Time;durP1;ratioP1;P1;durP2;ratioP2;P2;SDS_P1;SDS_P2;PMS_P1;PMS_P2;Temp;Humidity;BMP_temperature;BMP_pressure;BME280_temperature;BME280_humidity;BME280_pressure;Samples;Min_cycle;Max_cycle;Signal;HPM_P1;HPM_P2
2022/07/16 00:03:05;;;;;;;5.65;3.10;;;;;;;26.15;42.98;95025.50;5029002;28;20483;-51
2022/07/16 00:05:30;;;;;;;4.93;2.95;;;;;;;26.14;43.18;95031.50;5031323;28;20033;-52
2022/07/16 00:07:56;;;;;;;4.82;3.17;;;;;;;26.14;43.22;95032.22;5033221;28;20036;-55
2022/07/16 00:10:21;;;;;;;6.10;3.30;;;;;;;26.10;43.25;95029.06;5019063;28;20026;-51
2022/07/16 00:12:47;;;;;;;6.43;2.97;;;;;;;26.05;43.36;95031.91;5033515;28;20084;-51
2022/07/16 00:15:12;;;;;;;5.40;3.00;;;;;;;26.07;43.27;95021.91;5031673;28;20021;-51
2022/07/16 00:17:38;;;;;;;4.47;2.88;;;;;;;26.06;43.34;95031.38;5012007;28;20018;-51
2022/07/16 00:20:04;;;;;;;5.07;2.88;;;;;;;26.07;43.68;95030.13;5030109;28;20087;-51
2022/07/16 00:22:30;;;;;;;5.30;3.30;;;;;;;26.04;43.45;95027.72;5033778;28;20036;-51
2022/07/16 00:24:55;;;;;;;5.35;3.08;;;;;;;26.01;43.52;95024.03;5033142;28;20022;-50
2022/07/16 00:27:21;;;;;;;4.97;3.00;;;;;;;25.95;43.16;95025.41;5028149;28;20025;-50
2022/07/16 00:29:46;;;;;;;4.57;3.30;;;;;;;25.94;43.36;95024.63;5024524;28;20549;-50
2022/07/16 00:32:12;;;;;;;6.25;3.20;;;;;;;25.91;43.41;95020.22;5025956;28;20025;-52
2022/07/16 00:34:37;;;;;;;6.13;3.30;;;;;;;25.91;43.29;95028.44;5024628;28;20014;-50
2022/07/16 00:37:03;;;;;;;6.90;3.67;;;;;;;25.90;43.35;95029.72;5006499;28;20026;-49
2022/07/16 00:39:28;;;;;;;5.05;3.20;;;;;;;25.88;43.47;95031.50;5023958;28;20382;-50
2022/07/16 00:41:55;;;;;;;7.25;3.83;;;;;;;25.83;43.77;95024.84;5024403;28;20025;-50
2022/07/16 00:44:20;;;;;;;7.97;3.88;;;;;;;25.85;43.69;95027.78;5023321;28;20400;-50
2022/07/16 00:46:46;;;;;;;5.00;3.25;;;;;;;25.86;43.38;95029.28;5023554;28;20037;-50
2022/07/16 00:49:12;;;;;;;6.03;3.03;;;;;;;25.87;43.44;95025.28;5023894;28;20052;-50
2022/07/16 00:51:49;;;;;;;5.68;3.63;;;;;;;25.85;43.37;95027.78;5023798;28;20069;-49
2022/07/16 00:54:14;;;;;;;4.20;3.00;;;;;;;25.83;43.59;95035.78;5023959;28;20033;-50
2022/07/16 00:56:40;;;;;;;4.65;2.97;;;;;;;25.84;43.55;95031.06;5023531;28;20100;-50
2022/07/16 00:59:05;;;;;;;5.10;3.40;;;;;;;25.79;43.57;95024.41;5023481;28;20447;-49
2022/07/16 01:01:31;;;;;;;5.13;3.17;;;;;;;25.74;43.70;95027.28;5006751;28;20037;-50
2022/07/16 01:03:56;;;;;;;6.88;3.50;;;;;;;25.75;43.62;95022.53;5024457;28;20037;-50
2022/07/16 01:06:25;;;;;;;5.43;3.40;;;;;;;25.79;43.73;95040.84;5007714;28;20037;-50
2022/07/16 01:08:50;;;;;;;6.50;3.22;;;;;;;25.79;43.55;95033.91;5024264;28;20065;-50
2022/07/16 01:11:17;;;;;;;5.13;3.20;;;;;;;25.71;43.91;95033.03;5024372;28;20448;-50
2022/07/16 01:13:43;;;;;;;6.00;3.00;;;;;;;25.69;43.90;95041.03;5024380;28;20049;-50
2022/07/16 01:16:09;;;;;;;4.43;2.80;;;;;;;25.69;43.99;95035.56;5024126;28;20415;-49
2022/07/16 01:18:38;;;;;;;7.07;3.53;;;;;;;25.62;44.18;95025.22;5024294;28;20033;-50
2022/07/16 01:21:03;;;;;;;6.03;2.70;;;;;;;25.62;44.02;95033.41;5024213;28;20100;-49
2022/07/16 01:23:29;;;;;;;4.30;2.80;;;;;;;25.66;44.09;95028.41;5024101;28;20164;-50
2022/07/16 01:25:54;;;;;;;5.45;3.47;;;;;;;25.62;44.34;95033.41;5023560;28;20029;-50
2022/07/16 01:28:20;;;;;;;5.70;3.30;;;;;;;25.64;44.20;95028.19;5024208;28;20401;-50
2022/07/16 01:30:45;;;;;;;5.03;3.47;;;;;;;25.67;44.16;95032.63;5024057;28;20190;-50
2022/07/16 01:33:40;;;;;;;4.03;3.10;;;;;;;25.63;44.20;95032.16;5023982;28;20503;-49
2022/07/16 01:36:08;;;;;;;6.45;2.90;;;;;;;25.59;44.35;95026.25;5001936;28;20037;-50
2022/07/16 01:38:34;;;;;;;4.18;3.00;;;;;;;25.61;44.28;95031.97;5024136;28;20022;-52
2022/07/16 01:40:59;;;;;;;6.72;3.15;;;;;;;25.60;44.53;95035.94;5005901;28;20116;-51
2022/07/16 01:43:26;;;;;;;5.78;3.47;;;;;;;25.56;44.33;95027.28;5023251;28;20104;-51
2022/07/16 01:45:52;;;;;;;3.97;2.78;;;;;;;25.57;44.42;95034.25;5023360;28;20052;-51
2022/07/16 01:48:18;;;;;;;4.35;3.17;;;;;;;25.56;44.54;95033.53;5023871;28;20017;-49
2022/07/16 01:50:43;;;;;;;4.90;2.92;;;;;;;25.55;44.35;95031.31;5023923;28;20045;-52
2022/07/16 01:53:09;;;;;;;4.40;2.70;;;;;;;25.56;44.39;95036.25;5023429;28;20025;-52
2022/07/16 01:55:35;;;;;;;4.38;2.97;;;;;;;25.54;44.44;95040.75;5023292;28;20178;-49
2022/07/16 01:58:01;;;;;;;4.88;2.70;;;;;;;25.53;44.75;95044.75;5023634;28;20030;-52
2022/07/16 02:00:27;;;;;;;5.28;3.10;;;;;;;25.51;44.63;95048.00;5023225;28;20104;-51
2022/07/16 02:02:52;;;;;;;4.82;3.10;;;;;;;25.51;44.35;95058.22;5023533;28;20160;-51
2022/07/16 02:05:18;;;;;;;5.15;3.00;;;;;;;25.46;44.83;95046.13;5023171;28;20030;-52
2022/07/16 02:07:43;;;;;;;6.18;2.95;;;;;;;25.47;44.76;95052.31;5023779;28;20028;-52
2022/07/16 02:10:09;;;;;;;5.65;3.60;;;;;;;25.47;44.44;95052.31;5023539;28;20034;-52
2022/07/16 02:12:34;;;;;;;6.13;3.22;;;;;;;25.45;44.61;95057.56;5023476;28;20021;-52
2022/07/16 02:15:00;;;;;;;5.07;3.13;;;;;;;25.43;45.04;95065.56;5023123;28;20508;-51
2022/07/16 02:17:25;;;;;;;4.15;3.00;;;;;;;25.43;45.09;95058.09;5023407;28;20029;-52
2022/07/16 02:19:51;;;;;;;4.43;3.10;;;;;;;25.14;44.94;95028.25;5023359;28;20036;-51
2022/07/16 02:22:16;;;;;;;3.35;2.60;;;;;;;25.37;44.75;95064.91;5005199;28;20431;-52
2022/07/16 02:24:41;;;;;;;4.63;3.03;;;;;;;25.32;44.93;95063.00;5023038;28;20033;-51
2022/07/16 02:27:07;;;;;;;4.32;2.83;;;;;;;25.28;45.31;95062.56;5023178;28;20515;-52
2022/07/16 02:29:32;;;;;;;5.10;3.17;;;;;;;25.26;45.20;95070.56;5023172;28;20428;-51
2022/07/16 02:31:58;;;;;;;5.05;2.90;;;;;;;25.26;44.71;95070.56;5022296;28;20042;-52
2022/07/16 02:34:23;;;;;;;4.93;3.00;;;;;;;25.24;44.94;95067.59;5004783;28;20033;-52
2022/07/16 02:36:49;;;;;;;3.33;2.90;;;;;;;25.19;44.78;95068.41;5023283;28;20021;-52
2022/07/16 02:39:14;;;;;;;5.35;2.90;;;;;;;25.21;44.33;95074.09;5005167;28;20025;-51
2022/07/16 02:41:40;;;;;;;4.03;3.00;;;;;;;25.23;44.80;95066.13;5022600;28;20029;-52
2022/07/16 02:44:05;;;;;;;4.13;3.05;;;;;;;25.24;44.64;95067.59;5022829;28;20039;-52
2022/07/16 02:46:30;;;;;;;4.90;3.30;;;;;;;25.23;44.58;95065.38;5004979;28;20049;-52
2022/07/16 02:48:56;;;;;;;4.28;2.80;;;;;;;25.24;44.55;95064.13;5022984;28;20124;-52
2022/07/16 02:51:21;;;;;;;4.05;2.80;;;;;;;25.24;44.46;95067.59;5022745;28;20040;-51
2022/07/16 02:53:47;;;;;;;4.63;2.97;;;;;;;25.25;44.77;95069.06;5023223;28;20030;-52
2022/07/16 02:56:13;;;;;;;5.20;2.65;;;;;;;25.24;45.09;95067.59;5027071;28;20624;-52
2022/07/16 02:58:38;;;;;;;4.45;2.80;;;;;;;25.24;44.83;95061.41;5026993;28;20037;-52
2022/07/16 03:01:03;;;;;;;6.22;3.03;;;;;;;25.21;44.69;95063.16;5026934;28;20025;-52
2022/07/16 03:03:29;;;;;;;5.40;3.22;;;;;;;25.21;44.93;95074.09;5026688;28;20025;-51
2022/07/16 03:05:54;;;;;;;4.75;3.13;;;;;;;25.21;44.83;95065.91;5026947;28;20543;-50
2022/07/16 03:08:20;;;;;;;4.15;3.10;;;;;;;25.22;44.77;95070.13;5027053;28;20068;-51
2022/07/16 03:10:45;;;;;;;4.82;3.30;;;;;;;25.20;44.81;95067.16;5026877;28;20018;-51
2022/07/16 03:13:11;;;;;;;4.47;3.20;;;;;;;25.18;44.91;95075.13;5025788;28;20448;-50
2022/07/16 03:15:36;;;;;;;4.20;3.17;;;;;;;25.11;45.00;95070.28;5026285;28;20045;-51
2022/07/16 03:18:02;;;;;;;6.25;3.45;;;;;;;25.12;44.89;95077.22;5026618;28;20025;-51
2022/07/16 03:20:27;;;;;;;4.53;3.05;;;;;;;25.11;44.98;95080.47;5026551;28;20025;-52
2022/07/16 03:22:53;;;;;;;4.97;3.03;;;;;;;25.12;44.71;95074.47;5026286;28;20033;-52
2022/07/16 03:25:18;;;;;;;7.18;3.08;;;;;;;25.12;44.89;95088.13;5026507;28;20029;-51
2022/07/16 03:27:44;;;;;;;5.38;3.28;;;;;;;25.11;44.91;95092.16;5026327;28;20409;-51
2022/07/16 03:30:10;;;;;;;6.20;3.00;;;;;;;25.05;44.92;95086.03;5026306;28;20017;-52
2022/07/16 03:32:35;;;;;;;5.25;3.58;;;;;;;25.11;45.12;95092.16;5026311;28;20563;-51
2022/07/16 03:35:07;;;;;;;4.03;2.80;;;;;;;25.07;44.81;95088.97;5026031;28;20029;-51
2022/07/16 03:37:33;;;;;;;6.00;3.22;;;;;;;25.07;45.07;95097.16;5026536;28;20037;-51
2022/07/16 03:39:58;;;;;;;3.50;3.08;;;;;;;25.06;45.15;95095.69;5026332;28;20076;-51
2022/07/16 03:42:24;;;;;;;5.03;2.90;;;;;;;25.07;44.78;95108.09;5026238;28;20028;-51
2022/07/16 03:44:49;;;;;;;5.80;3.20;;;;;;;25.04;45.31;95109.13;5025648;28;20045;-52
2022/07/16 03:47:15;;;;;;;4.70;3.10;;;;;;;24.82;45.01;95082.06;5025767;28;20759;-50
2022/07/16 03:49:40;;;;;;;4.65;2.78;;;;;;;25.07;44.94;95105.38;5025738;28;20037;-50
2022/07/16 03:52:06;;;;;;;3.78;2.67;;;;;;;25.07;45.25;95113.56;5026176;28;20018;-50
2022/07/16 03:54:31;;;;;;;6.53;3.53;;;;;;;25.08;44.95;95114.28;5025583;28;20061;-50
2022/07/16 03:56:57;;;;;;;3.63;2.95;;;;;;;25.08;45.13;95115.06;5025588;28;20490;-50
2022/07/16 03:59:22;;;;;;;5.25;2.90;;;;;;;24.99;45.56;95101.75;5025483;28;20022;-49
2022/07/16 04:01:47;;;;;;;4.75;3.08;;;;;;;25.05;45.41;95110.63;5025935;28;20021;-50
2022/07/16 04:04:13;;;;;;;3.90;2.92;;;;;;;25.02;45.07;95111.66;5025523;28;20033;-51
2022/07/16 04:06:39;;;;;;;4.13;2.90;;;;;;;25.02;45.53;95100.72;5024772;28;20091;-50
2022/07/16 04:09:04;;;;;;;4.10;2.83;;;;;;;24.79;45.41;95068.72;5025542;28;20029;-49
2022/07/16 04:11:30;;;;;;;5.07;3.10;;;;;;;25.03;45.35;95101.44;5025578;28;20030;-50
2022/07/16 04:13:55;;;;;;;4.40;2.90;;;;;;;25.02;45.60;95095.25;5025488;28;20478;-50
2022/07/16 04:16:21;;;;;;;3.92;2.60;;;;;;;25.05;45.11;95105.16;5025419;28;20068;-50
2022/07/16 04:18:46;;;;;;;3.80;2.50;;;;;;;25.05;45.01;95110.63;5025416;28;20033;-50
2022/07/16 04:21:12;;;;;;;3.08;2.50;;;;;;;25.06;45.31;95101.16;5025365;28;20462;-50
2022/07/16 04:23:37;;;;;;;3.80;2.80;;;;;;;25.03;45.68;95104.91;5025386;28;20076;-51
2022/07/16 04:26:03;;;;;;;4.15;2.97;;;;;;;25.01;45.50;95115.63;5024947;28;20022;-51
2022/07/16 04:28:28;;;;;;;4.72;2.47;;;;;;;24.98;45.88;95105.72;5008633;28;20105;-51
2022/07/16 04:30:54;;;;;;;5.03;2.90;;;;;;;24.93;45.53;95109.25;5005203;28;20044;-51
2022/07/16 04:33:19;;;;;;;4.53;2.53;;;;;;;24.92;45.44;95107.78;5008371;28;20503;-51
2022/07/16 04:35:45;;;;;;;4.70;2.65;;;;;;;24.92;45.80;95107.03;4987127;28;20025;-51
2022/07/16 04:38:10;;;;;;;4.78;2.50;;;;;;;24.92;45.37;95110.50;5005006;28;20550;-51
2022/07/16 04:40:36;;;;;;;4.60;2.45;;;;;;;24.94;45.30;95113.44;5004768;28;20065;-52
2022/07/16 04:43:01;;;;;;;4.72;2.70;;;;;;;24.94;45.15;95116.19;5007077;28;20033;-51
2022/07/16 04:45:27;;;;;;;5.18;2.40;;;;;;;24.94;44.99;95121.66;5004223;28;20436;-51
2022/07/16 04:47:52;;;;;;;4.95;2.10;;;;;;;24.93;45.18;95125.66;5004370;28;20026;-51
2022/07/16 04:50:17;;;;;;;3.17;2.50;;;;;;;24.92;45.03;95126.91;5005701;28;20025;-50
2022/07/16 04:52:43;;;;;;;2.75;2.13;;;;;;;24.93;45.01;95131.13;5004441;28;20022;-50
2022/07/16 04:55:08;;;;;;;4.57;2.10;;;;;;;24.94;45.00;95135.31;5006581;28;20037;-51
2022/07/16 04:57:34;;;;;;;3.50;2.47;;;;;;;24.95;45.08;95136.78;5004229;28;20014;-50
2022/07/16 04:59:59;;;;;;;3.13;2.40;;;;;;;24.98;45.47;95133.03;5004523;28;20029;-50
2022/07/16 05:05:09;;;;;;;5.22;2.78;;;;;;;25.10;45.09;95128.94;5024352;28;20118;-51
2022/07/16 05:07:35;;;;;;;8.43;3.28;;;;;;;25.02;44.96;95133.50;5022231;28;20726;-50
2022/07/16 05:10:00;;;;;;;5.10;3.00;;;;;;;24.94;44.88;95132.56;5013947;28;20420;-50
2022/07/16 05:12:26;;;;;;;5.10;2.97;;;;;;;24.95;44.80;95139.53;4998794;28;20120;-51
2022/07/16 05:14:51;;;;;;;6.20;3.55;;;;;;;24.96;44.89;95135.56;5024042;28;20390;-54
2022/07/16 05:17:17;;;;;;;3.42;2.70;;;;;;;24.94;45.04;95138.03;5022301;28;20060;-50
2022/07/16 05:19:42;;;;;;;3.25;2.80;;;;;;;24.89;46.58;95136.13;5024180;28;20487;-50
2022/07/16 05:22:08;;;;;;;4.35;2.88;;;;;;;24.82;46.89;95125.03;5024257;28;20028;-50
2022/07/16 05:24:34;;;;;;;5.45;2.80;;;;;;;24.90;46.87;95137.63;5023741;28;20034;-50
2022/07/16 05:26:59;;;;;;;5.50;3.00;;;;;;;24.97;46.26;95131.53;5023900;28;20040;-50
2022/07/16 05:29:25;;;;;;;6.65;3.22;;;;;;;24.99;46.71;95141.97;5023159;28;20029;-50
2022/07/16 05:31:50;;;;;;;6.43;3.33;;;;;;;25.14;45.80;95134.84;5011431;28;20042;-50
2022/07/16 05:34:16;;;;;;;4.25;3.40;;;;;;;25.18;45.00;95129.78;5017556;28;20025;-49
2022/07/16 05:36:41;;;;;;;3.90;3.05;;;;;;;25.27;44.08;95121.22;5022549;28;20037;-50
2022/07/16 05:39:07;;;;;;;6.32;3.13;;;;;;;25.36;43.98;95123.56;5022772;28;20570;-51
2022/07/16 05:41:32;;;;;;;5.93;3.05;;;;;;;25.39;44.43;95128.00;5018354;28;20029;-50
2022/07/16 05:43:58;;;;;;;4.68;2.75;;;;;;;25.54;44.16;95133.75;5001373;28;20698;-51
2022/07/16 05:46:23;;;;;;;4.70;2.70;;;;;;;25.73;43.90;95137.22;5001497;28;20030;-51
2022/07/16 05:48:49;;;;;;;6.47;2.60;;;;;;;25.87;43.58;95140.22;4987490;28;20017;-50
2022/07/16 05:51:14;;;;;;;2.92;2.20;;;;;;;26.06;43.24;95146.34;5011355;28;20099;-50
2022/07/16 05:53:40;;;;;;;4.10;2.30;;;;;;;26.23;42.75;95144.03;5017389;28;20034;-50
2022/07/16 05:56:05;;;;;;;3.85;2.05;;;;;;;26.38;42.94;95138.81;5020898;28;20390;-50
2022/07/16 05:58:31;;;;;;;3.38;2.28;;;;;;;26.52;42.31;95137.59;5002490;28;20103;-51
2022/07/16 06:00:56;;;;;;;3.92;2.25;;;;;;;26.67;42.19;95137.78;5014538;28;20045;-50
2022/07/16 06:03:23;;;;;;;4.10;2.55;;;;;;;26.88;42.07;95137.34;5012893;28;20048;-50
2022/07/16 06:05:48;;;;;;;2.83;2.10;;;;;;;26.98;41.44;95135.66;5020348;28;20037;-50
2022/07/16 06:08:14;;;;;;;3.22;2.08;;;;;;;27.07;41.20;95126.25;5018401;28;20133;-50
2022/07/16 06:10:39;;;;;;;6.40;3.00;;;;;;;27.23;41.00;95128.63;5007934;28;20623;-50
2022/07/16 06:13:05;;;;;;;3.95;2.17;;;;;;;27.36;40.68;95131.34;5022574;28;20052;-50
2022/07/16 06:15:30;;;;;;;4.55;2.40;;;;;;;27.47;40.69;95128.34;5022274;28;20064;-50
2022/07/16 06:17:55;;;;;;;4.25;2.40;;;;;;;27.62;40.52;95131.28;5022454;28;20041;-50
2022/07/16 06:20:22;;;;;;;3.88;2.00;;;;;;;27.72;40.70;95124.06;5022254;28;20044;-51
2022/07/16 06:22:47;;;;;;;3.40;2.50;;;;;;;27.84;40.38;95126.72;5022662;28;20025;-50
2022/07/16 06:25:13;;;;;;;3.20;2.10;;;;;;;27.96;40.37;95127.91;5019180;28;20483;-50
2022/07/16 06:27:43;;;;;;;3.45;2.10;;;;;;;28.03;40.05;95127.25;5019824;28;20036;-51
2022/07/16 06:30:09;;;;;;;5.10;2.10;;;;;;;28.16;39.60;95124.47;5019963;28;20025;-51
2022/07/16 06:32:34;;;;;;;4.18;2.28;;;;;;;28.25;39.90;95126.72;5002781;28;20438;-50
2022/07/16 06:35:00;;;;;;;6.03;2.53;;;;;;;28.32;39.59;95120.53;5009112;28;20337;-51
2022/07/16 06:37:25;;;;;;;3.88;2.47;;;;;;;28.39;39.49;95119.88;5017824;28;20033;-51
2022/07/16 06:39:51;;;;;;;4.97;2.67;;;;;;;28.48;39.70;95122.84;5018822;28;20025;-51
2022/07/16 06:42:16;;;;;;;3.40;2.10;;;;;;;28.54;39.62;95119.97;5014202;28;20025;-50
2022/07/16 06:44:43;;;;;;;4.13;2.30;;;;;;;28.53;39.57;95112.97;5010321;28;20041;-51
2022/07/16 06:47:08;;;;;;;4.10;2.63;;;;;;;28.51;39.82;95094.28;5004951;28;20041;-50
2022/07/16 06:49:34;;;;;;;6.22;3.13;;;;;;;28.82;39.31;95118.66;5005607;28;20617;-49
2022/07/16 06:51:59;;;;;;;5.78;3.22;;;;;;;28.98;38.69;95125.69;5022604;28;20507;-52
2022/07/16 06:54:25;;;;;;;6.90;3.30;;;;;;;29.06;38.58;95123.72;5022091;28;20029;-51
2022/07/16 06:56:50;;;;;;;5.95;2.67;;;;;;;29.15;38.51;95125.97;5012060;28;20030;-52
2022/07/16 06:59:16;;;;;;;6.10;3.17;;;;;;;29.07;39.08;95133.44;5002364;28;20010;-52
2022/07/16 07:01:41;;;;;;;4.28;2.97;;;;;;;29.04;39.14;95137.28;5009705;28;20029;-54
2022/07/16 07:04:06;;;;;;;5.93;3.15;;;;;;;29.05;39.52;95130.50;5024307;28;20292;-56
2022/07/16 07:06:32;;;;;;;7.50;3.00;;;;;;;29.06;39.92;95137.47;5028973;28;20132;-52
2022/07/16 07:08:57;;;;;;;4.93;3.30;;;;;;;29.04;39.73;95131.03;5026866;28;20032;-52
2022/07/16 07:11:23;;;;;;;7.40;2.38;;;;;;;29.09;39.57;95130.91;5026799;28;20025;-52
2022/07/16 07:13:48;;;;;;;5.30;2.60;;;;;;;29.15;39.56;95131.47;5023578;28;20677;-51
2022/07/16 07:16:14;;;;;;;4.35;2.25;;;;;;;29.09;38.85;95125.38;5026036;28;20033;-52
2022/07/16 07:18:39;;;;;;;4.28;2.75;;;;;;;29.18;39.37;95127.63;5023760;28;20087;-51
2022/07/16 07:21:05;;;;;;;4.43;2.55;;;;;;;29.11;38.85;95133.09;5022847;28;20095;-52
2022/07/16 07:23:30;;;;;;;6.13;3.25;;;;;;;29.18;39.38;95127.63;5022072;28;20040;-52
2022/07/16 07:25:56;;;;;;;5.80;2.70;;;;;;;29.28;38.90;95126.59;5021861;28;20522;-52
2022/07/16 07:28:21;;;;;;;5.78;2.53;;;;;;;29.34;39.29;95129.91;5021573;28;20400;-52
2022/07/16 07:30:47;;;;;;;6.18;2.45;;;;;;;29.34;39.08;95123.66;5009763;28;20037;-51
2022/07/16 07:33:13;;;;;;;7.13;3.15;;;;;;;29.48;38.79;95133.25;5020489;28;20092;-52
2022/07/16 07:35:39;;;;;;;5.30;2.80;;;;;;;29.51;38.87;95126.66;5021644;28;20014;-52
2022/07/16 07:38:05;;;;;;;6.18;2.67;;;;;;;29.62;38.61;95126.31;5015735;28;20022;-52
2022/07/16 07:40:30;;;;;;;5.00;2.90;;;;;;;29.62;39.01;95131.81;5023093;28;20428;-49
2022/07/16 07:42:56;;;;;;;5.63;2.53;;;;;;;29.73;38.63;95132.94;5025089;28;20022;-49
2022/07/16 07:45:21;;;;;;;4.63;2.72;;;;;;;29.77;38.44;95130.53;5024844;28;20050;-51
2022/07/16 07:47:47;;;;;;;5.97;2.80;;;;;;;29.89;38.45;95134.44;5024873;28;20017;-48
2022/07/16 07:50:13;;;;;;;6.72;2.90;;;;;;;29.87;38.14;95137.00;5024897;28;20036;-48
2022/07/16 07:52:39;;;;;;;6.75;2.47;;;;;;;29.94;37.95;95133.53;5025648;28;20507;-49
2022/07/16 07:55:05;;;;;;;5.55;2.70;;;;;;;29.97;37.79;95139.94;5024673;28;20030;-50
2022/07/16 07:57:30;;;;;;;3.80;2.47;;;;;;;30.02;38.01;95145.28;5025021;28;20470;-52
2022/07/16 07:59:56;;;;;;;5.25;2.45;;;;;;;30.04;37.94;95139.94;5025224;28;20029;-53
2022/07/16 08:02:21;;;;;;;3.58;2.40;;;;;;;30.00;38.02;95145.13;5025335;28;20052;-52
2022/07/16 08:04:46;;;;;;;3.80;2.45;;;;;;;30.05;37.92;95138.69;5025342;28;20040;-53
2022/07/16 08:07:12;;;;;;;3.80;2.38;;;;;;;30.08;37.82;95129.31;5025881;28;20412;-52
2022/07/16 08:09:38;;;;;;;4.43;2.20;;;;;;;30.14;37.66;95126.38;5024303;28;20021;-50
2022/07/16 08:12:03;;;;;;;5.45;2.33;;;;;;;30.17;37.55;95126.00;5025151;28;20025;-50
2022/07/16 08:14:29;;;;;;;3.70;2.55;;;;;;;30.18;37.50;95127.50;5025218;28;20026;-50
2022/07/16 08:16:55;;;;;;;6.72;2.60;;;;;;;30.20;37.79;95127.66;5025053;28;20455;-51
2022/07/16 08:19:21;;;;;;;6.30;2.55;;;;;;;30.20;37.62;95125.63;5024993;28;20447;-50
2022/07/16 08:21:47;;;;;;;10.95;2.78;;;;;;;30.15;38.04;95134.09;5025003;28;20034;-52
2022/07/16 08:26:57;;;;;;;10.30;2.92;;;;;;;29.99;37.85;95116.09;5025164;28;20399;-51
2022/07/16 08:29:22;;;;;;;7.93;2.50;;;;;;;29.91;38.10;95129.13;5006856;28;20026;-52
2022/07/16 08:31:48;;;;;;;5.90;2.50;;;;;;;29.84;38.63;95131.88;5025459;28;20025;-50
2022/07/16 08:34:14;;;;;;;4.93;2.83;;;;;;;29.74;38.01;95123.38;5024811;28;20040;-51
2022/07/16 08:36:40;;;;;;;6.05;2.67;;;;;;;29.67;38.49;95129.63;5024867;28;20076;-52
2022/07/16 08:39:05;;;;;;;5.32;2.50;;;;;;;29.59;38.17;95122.63;5022855;28;20416;-51
2022/07/16 08:41:31;;;;;;;4.80;2.40;;;;;;;29.55;38.70;95127.00;5022794;28;20021;-51
2022/07/16 08:43:57;;;;;;;5.60;2.45;;;;;;;29.43;38.50;95131.38;5022505;28;20045;-50
2022/07/16 08:46:23;;;;;;;3.42;2.38;;;;;;;29.36;38.86;95132.13;5004684;28;20286;-51
2022/07/16 08:48:48;;;;;;;4.35;2.30;;;;;;;29.30;38.90;95131.56;5006028;28;20037;-50
2022/07/16 08:51:14;;;;;;;4.40;2.65;;;;;;;29.18;38.49;95122.13;5023149;28;20021;-51
2022/07/16 08:53:39;;;;;;;3.92;2.38;;;;;;;29.17;39.07;95130.91;5006947;28;20025;-50
2022/07/16 08:56:05;;;;;;;7.22;2.30;;;;;;;29.10;38.98;95126.13;5023789;28;20039;-50
2022/07/16 08:58:31;;;;;;;5.13;2.60;;;;;;;29.07;39.12;95127.94;5005993;28;20040;-50
2022/07/16 09:00:57;;;;;;;3.95;2.13;;;;;;;29.02;38.91;95134.34;5024388;28;20488;-50
2022/07/16 09:03:22;;;;;;;5.97;2.58;;;;;;;28.96;39.37;95128.25;5024562;28;20036;-50
2022/07/16 09:05:49;;;;;;;4.57;2.35;;;;;;;28.93;39.06;95134.84;5024404;28;20048;-51
2022/07/16 09:08:16;;;;;;;4.28;2.25;;;;;;;28.89;39.11;95139.97;5024529;28;20036;-50
2022/07/16 09:10:41;;;;;;;3.90;2.58;;;;;;;28.65;39.59;95111.41;5007042;28;20419;-50
2022/07/16 09:13:09;;;;;;;3.25;2.38;;;;;;;28.81;39.51;95133.69;5023984;28;20029;-50
2022/07/16 09:15:44;;;;;;;3.78;2.55;;;;;;;28.75;39.79;95130.34;5011531;28;20025;-50
2022/07/16 09:18:26;;;;;;;3.30;2.10;;;;;;;28.74;39.75;95128.91;5024178;28;20013;-50
2022/07/16 09:20:56;;;;;;;5.35;2.13;;;;;;;28.69;39.88;95125.56;5023880;28;20903;-51
2022/07/16 09:23:22;;;;;;;3.20;2.17;;;;;;;28.62;39.86;95120.72;5024208;28;20029;-50
2022/07/16 09:25:53;;;;;;;3.33;2.20;;;;;;;28.60;39.67;95117.78;5006461;28;20036;-50
2022/07/16 09:28:19;;;;;;;4.47;2.33;;;;;;;28.62;39.94;95121.47;5023539;28;20043;-52
2022/07/16 09:30:44;;;;;;;4.38;2.35;;;;;;;28.65;40.43;95119.66;5023683;28;20033;-50
2022/07/16 09:35:45;;;;;;;3.40;2.55;;;;;;;28.44;40.36;95094.25;5020941;22;20381;-67
2022/07/16 09:38:11;;;;;;;3.33;2.65;;;;;;;28.37;41.03;95086.69;4970147;28;20517;-68
2022/07/16 09:40:46;;;;;;;5.70;2.22;;;;;;;28.36;40.87;95093.47;5002350;28;20029;-68
2022/07/16 09:43:15;;;;;;;3.67;2.38;;;;;;;28.47;41.02;95109.66;5004241;28;20026;-68
2022/07/16 09:45:49;;;;;;;3.80;2.50;;;;;;;28.17;40.43;95064.78;4988179;28;20480;-68
2022/07/16 09:48:35;;;;;;;3.97;2.38;;;;;;;28.41;40.46;95111.81;5005863;28;20037;-68
2022/07/16 09:51:12;;;;;;;4.45;2.55;;;;;;;28.38;41.06;95107.41;5003599;28;20021;-68
2022/07/16 09:53:43;;;;;;;3.53;2.25;;;;;;;28.23;40.52;95101.78;5003276;28;20026;-68
2022/07/16 09:56:10;;;;;;;4.03;2.28;;;;;;;28.33;40.42;95105.53;5004085;28;20029;-68
2022/07/16 09:58:36;;;;;;;3.65;2.40;;;;;;;28.14;40.83;95077.56;4985815;28;20037;-68
2022/07/16 10:01:02;;;;;;;3.67;2.50;;;;;;;28.11;40.22;95067.66;4998693;28;20436;-68
2022/07/16 10:03:28;;;;;;;4.47;2.55;;;;;;;28.25;40.78;95099.25;4988400;28;20053;-67
2022/07/16 10:05:53;;;;;;;5.10;2.33;;;;;;;28.09;41.09;95078.44;5003993;28;20030;-68
2022/07/16 10:08:19;;;;;;;4.30;2.30;;;;;;;28.14;40.96;95083.06;5004226;28;20030;-68
2022/07/16 10:10:45;;;;;;;4.55;2.20;;;;;;;28.16;40.42;95091.50;5003292;28;20366;-68
2022/07/16 10:13:11;;;;;;;3.15;2.30;;;;;;;28.22;41.00;95083.88;5004561;28;20026;-69
2022/07/16 10:15:36;;;;;;;4.70;2.60;;;;;;;28.07;40.62;95061.75;5003614;28;20036;-68
2022/07/16 10:18:02;;;;;;;4.25;2.17;;;;;;;28.12;41.11;95074.63;4986909;28;20033;-69
2022/07/16 10:20:28;;;;;;;2.70;2.35;;;;;;;28.10;41.03;95066.22;5004638;28;20034;-69
2022/07/16 10:22:53;;;;;;;4.13;2.40;;;;;;;28.08;40.53;95074.19;4984255;28;20133;-68
2022/07/16 10:25:26;;;;;;;4.00;2.53;;;;;;;27.95;40.94;95051.59;5004516;28;20030;-69
2022/07/16 10:27:52;;;;;;;3.25;2.47;;;;;;;28.14;40.74;95076.84;5004406;28;20133;-68
2022/07/16 10:30:29;;;;;;;4.50;2.38;;;;;;;28.15;40.69;95083.81;5004569;28;20053;-69
2022/07/16 10:33:02;;;;;;;4.53;2.33;;;;;;;28.16;40.62;95085.25;5002930;28;20061;-68
2022/07/16 10:35:32;;;;;;;4.22;2.50;;;;;;;27.91;40.61;95049.19;5002729;28;20124;-68
2022/07/16 10:38:08;;;;;;;3.72;2.60;;;;;;;27.99;40.79;95058.22;5003895;28;20117;-68
2022/07/16 10:40:36;;;;;;;3.58;2.70;;;;;;;28.05;40.82;95067.03;4979635;28;20018;-68
2022/07/16 10:43:17;;;;;;;2.90;2.40;;;;;;;28.13;40.94;95081.59;4979489;28;20319;-70
2022/07/16 10:45:56;;;;;;;2.55;2.20;;;;;;;28.13;40.83;95081.59;5004356;28;20500;-68
2022/07/16 10:48:25;;;;;;;3.40;2.00;;;;;;;28.02;40.64;95065.38;5003920;28;20116;-70
2022/07/16 10:51:15;;;;;;;2.92;2.42;;;;;;;28.13;40.65;95078.09;5003674;28;20022;-70
2022/07/16 10:54:05;;;;;;;3.53;2.60;;;;;;;28.12;41.06;95080.13;5003299;28;20042;-67
2022/07/16 10:56:34;;;;;;;5.13;2.33;;;;;;;28.11;40.39;95073.16;5003199;28;21339;-68
2022/07/16 10:59:05;;;;;;;5.03;2.40;;;;;;;27.86;40.51;95041.09;4985977;28;20055;-68
2022/07/16 11:01:30;;;;;;;3.90;2.13;;;;;;;27.95;40.50;95049.59;5003363;28;20058;-68
2022/07/16 11:03:56;;;;;;;3.80;2.50;;;;;;;28.03;40.42;95072.34;5002619;28;20169;-68
2022/07/16 11:06:21;;;;;;;3.08;2.15;;;;;;;28.10;40.38;95071.69;5002671;28;20030;-69
2022/07/16 11:08:55;;;;;;;3.03;2.42;;;;;;;28.02;40.64;95065.38;4982272;28;20033;-68
2022/07/16 11:11:20;;;;;;;3.28;2.50;;;;;;;28.08;40.92;95068.69;4989939;28;20432;-69
2022/07/16 11:13:46;;;;;;;3.40;2.30;;;;;;;28.11;40.03;95062.16;4985179;28;20026;-69
2022/07/16 11:16:12;;;;;;;3.08;2.50;;;;;;;28.11;40.63;95067.66;5005597;28;20056;-69
2022/07/16 11:18:38;;;;;;;2.58;2.03;;;;;;;28.01;40.05;95047.44;5007505;28;20030;-69
2022/07/16 11:21:05;;;;;;;2.95;2.33;;;;;;;27.93;40.69;95040.41;4989078;28;20033;-68
2022/07/16 11:23:30;;;;;;;3.50;2.10;;;;;;;28.03;40.58;95044.88;5006783;28;20108;-69
2022/07/16 11:25:58;;;;;;;2.30;2.08;;;;;;;27.84;40.11;95016.91;5006166;28;20044;-68
2022/07/16 11:28:23;;;;;;;2.72;2.40;;;;;;;27.92;39.98;95034.19;4989201;28;20099;-69
2022/07/16 11:31:00;;;;;;;3.67;1.90;;;;;;;27.92;40.29;95031.47;5006401;28;20124;-68
2022/07/16 11:33:35;;;;;;;2.60;2.33;;;;;;;27.94;40.07;95030.91;5007523;28;20048;-69
2022/07/16 11:36:05;;;;;;;2.47;2.00;;;;;;;28.12;40.50;95058.16;4988312;28;20046;-68
2022/07/16 11:38:31;;;;;;;3.35;2.20;;;;;;;27.97;40.36;95036.06;5006563;28;20025;-68
2022/07/16 11:40:56;;;;;;;2.83;2.10;;;;;;;28.07;39.83;95050.78;5006811;28;20030;-68